Time;durP1;ratioP1;P1;durP2;ratioP2;P2;SDS_P1;SDS_P2;PMS_P1;PMS_P2;Temp;Humidity;BMP_temperature;BMP_pressure;BME280_temperature;BME280_humidity;BME280_pressure;Samples;Min_cycle;Max_cycle;Signal;HPM_P1;HPM_P2
2022/11/17 00:02:12;;;;;;;2.60;2.08;;;;;;;;;;4961749;29;20074;-84
2022/11/17 00:04:38;;;;;;;1.60;1.50;;;;;;;;;;4961882;29;20023;-84
2022/11/17 00:07:04;;;;;;;2.92;1.75;;;;;;;;;;4961071;29;20095;-83
2022/11/17 00:09:31;;;;;;;3.08;1.60;;;;;;;;;;4961553;29;20070;-83
2022/11/17 00:14:41;;;;;;;2.92;1.77;;;;;;;;;;4961455;29;20074;-83
2022/11/17 00:17:11;;;;;;;4.72;2.05;;;;;;;;;;4959347;29;20038;-83
2022/11/17 00:22:23;;;;;;;2.50;1.73;;;;;;;;;;4962147;29;20054;-83
2022/11/17 00:24:50;;;;;;;2.25;1.55;;;;;;;;;;4956549;28;20019;-83
2022/11/17 00:27:16;;;;;;;2.33;1.73;;;;;;;;;;4965872;28;20461;-84
2022/11/17 00:29:42;;;;;;;2.47;1.60;;;;;;;;;;4963536;29;20027;-83
2022/11/17 00:35:00;;;;;;;3.55;1.92;;;;;;;;;;4961618;28;20453;-83
2022/11/17 00:37:27;;;;;;;2.92;1.40;;;;;;;;;;4962361;29;20417;-83
2022/11/17 00:39:53;;;;;;;2.28;1.80;;;;;;;;;;4971720;29;20027;-83
2022/11/17 00:42:19;;;;;;;2.17;1.77;;;;;;;;;;4976798;29;20057;-83
2022/11/17 00:44:45;;;;;;;2.85;1.67;;;;;;;;;;4975755;28;20047;-84
2022/11/17 00:47:11;;;;;;;2.95;1.40;;;;;;;;;;4958289;29;20035;-83
2022/11/17 00:49:37;;;;;;;1.45;1.35;;;;;;;;;;4950468;29;20031;-84
2022/11/17 00:52:03;;;;;;;1.90;1.65;;;;;;;;;;4952860;29;20027;-83
2022/11/17 00:54:29;;;;;;;2.72;1.48;;;;;;;;;;4985712;28;20063;-83
2022/11/17 00:56:55;;;;;;;2.40;1.73;;;;;;;;;;4973261;28;20142;-83
2022/11/17 00:59:21;;;;;;;3.70;2.00;;;;;;;;;;4997503;28;20050;-83
2022/11/17 01:01:51;;;;;;;2.40;1.60;;;;;;;;;;4997369;28;20019;-83
2022/11/17 01:04:17;;;;;;;1.63;1.33;;;;;;;;;;4997232;28;20015;-83
2022/11/17 01:06:44;;;;;;;2.38;1.15;;;;;;;;;;4997420;28;20031;-84
2022/11/17 01:09:18;;;;;;;2.42;1.50;;;;;;;;;;4997800;28;20029;-83
2022/11/17 01:11:46;;;;;;;1.90;1.27;;;;;;;;;;4979608;28;20086;-84
2022/11/17 01:14:14;;;;;;;2.47;1.92;;;;;;;;;;4989851;28;20106;-84
2022/11/17 01:16:40;;;;;;;1.77;1.60;;;;;;;;;;4974468;28;20035;-84
2022/11/17 01:19:06;;;;;;;1.30;1.13;;;;;;;;;;4981031;28;20046;-84
2022/11/17 01:21:32;;;;;;;1.15;0.93;;;;;;;;;;4997636;28;20026;-84
2022/11/17 01:23:59;;;;;;;1.70;1.15;;;;;;;;;;4976207;28;20139;-84
2022/11/17 01:26:29;;;;;;;1.48;1.38;;;;;;;;;;4988047;28;20026;-84
2022/11/17 01:28:56;;;;;;;1.23;1.13;;;;;;;;;;4969349;28;20629;-84
2022/11/17 01:31:24;;;;;;;1.90;1.13;;;;;;;;;;4963678;28;20033;-84
2022/11/17 01:33:50;;;;;;;3.65;1.38;;;;;;;;;;4979351;28;20034;-84
2022/11/17 01:36:21;;;;;;;2.13;1.35;;;;;;;;;;4977973;28;20503;-84
2022/11/17 01:38:47;;;;;;;2.63;1.25;;;;;;;;;;4978705;28;20496;-83
2022/11/17 01:41:19;;;;;;;3.20;1.25;;;;;;;;;;4985662;28;20034;-83
2022/11/17 01:43:47;;;;;;;1.75;1.10;;;;;;;;;;4996008;28;20043;-83
2022/11/17 01:46:20;;;;;;;2.20;1.40;;;;;;;;;;4974636;28;20085;-85
2022/11/17 01:48:47;;;;;;;1.73;1.10;;;;;;;;;;4987444;28;20070;-86
2022/11/17 01:51:14;;;;;;;1.08;0.98;;;;;;;;;;4964720;28;20030;-83
2022/11/17 01:53:41;;;;;;;4.05;1.20;;;;;;;;;;4963348;28;20050;-84
2022/11/17 01:56:11;;;;;;;1.33;1.23;;;;;;;;;;4949064;29;20332;-85
2022/11/17 01:58:41;;;;;;;2.22;1.25;;;;;;;;;;4960079;29;20042;-84
2022/11/17 02:01:07;;;;;;;2.85;1.10;;;;;;;;;;4945725;29;20023;-85
2022/11/17 02:03:33;;;;;;;1.00;0.80;;;;;;;;;;4945884;29;20035;-85
2022/11/17 02:06:11;;;;;;;1.02;0.90;;;;;;;;;;4962841;29;20036;-85
2022/11/17 02:08:38;;;;;;;0.95;0.90;;;;;;;;;;4954721;28;20035;-81
2022/11/17 02:11:05;;;;;;;1.70;1.17;;;;;;;;;;4960128;29;20099;-80
2022/11/17 02:13:33;;;;;;;0.80;0.60;;;;;;;;;;4962087;29;20070;-82
2022/11/17 02:15:59;;;;;;;1.42;0.75;;;;;;;;;;4958953;29;20050;-84
2022/11/17 02:18:25;;;;;;;0.88;0.75;;;;;;;;;;4958035;29;20122;-83
2022/11/17 02:21:00;;;;;;;0.93;0.60;;;;;;;;;;4959339;29;20385;-84
2022/11/17 02:23:45;;;;;;;0.73;0.70;;;;;;;;;;4945674;28;20018;-82
2022/11/17 02:26:20;;;;;;;0.60;0.55;;;;;;;;;;4954486;29;20023;-86
2022/11/17 02:28:56;;;;;;;0.52;0.52;;;;;;;;;;4958785;29;20471;-83
2022/11/17 02:31:40;;;;;;;0.60;0.60;;;;;;;;;;4958090;29;20134;-82
2022/11/17 02:34:15;;;;;;;0.93;0.60;;;;;;;;;;4958139;29;20392;-84
2022/11/17 02:37:06;;;;;;;0.70;0.52;;;;;;;;;;4952450;28;20039;-84
2022/11/17 02:39:35;;;;;;;1.65;0.80;;;;;;;;;;4976870;28;20043;-83
2022/11/17 02:42:01;;;;;;;1.10;1.00;;;;;;;;;;4949380;29;20031;-83
2022/11/17 02:44:31;;;;;;;1.33;0.90;;;;;;;;;;4941696;29;20051;-83
2022/11/17 02:47:02;;;;;;;2.22;0.85;;;;;;;;;;4958844;29;20397;-83
2022/11/17 02:49:35;;;;;;;3.38;0.95;;;;;;;;;;4957416;29;20444;-84
2022/11/17 02:52:02;;;;;;;0.95;0.85;;;;;;;;;;4940362;29;20027;-84
2022/11/17 02:54:29;;;;;;;1.13;0.82;;;;;;;;;;4985235;28;20007;-83
2022/11/17 02:56:55;;;;;;;1.83;0.90;;;;;;;;;;4966437;28;20156;-83
2022/11/17 02:59:24;;;;;;;1.65;1.20;;;;;;;;;;4959354;29;20152;-83
2022/11/17 03:01:53;;;;;;;0.90;0.90;;;;;;;;;;4960754;29;20409;-84
2022/11/17 03:04:29;;;;;;;1.23;1.00;;;;;;;;;;4960244;29;20090;-83
2022/11/17 03:06:58;;;;;;;0.80;0.80;;;;;;;;;;4977741;28;20037;-82
2022/11/17 03:09:33;;;;;;;1.00;0.90;;;;;;;;;;4967256;29;20125;-81
2022/11/17 03:12:05;;;;;;;0.93;0.88;;;;;;;;;;4964097;29;20023;-83
2022/11/17 03:14:47;;;;;;;0.70;0.70;;;;;;;;;;4978808;28;20015;-82
2022/11/17 03:17:13;;;;;;;1.55;0.88;;;;;;;;;;4964366;29;20046;-83
2022/11/17 03:19:45;;;;;;;1.52;1.00;;;;;;;;;;4981369;28;20023;-82
2022/11/17 03:22:14;;;;;;;2.13;1.10;;;;;;;;;;4959939;29;20051;-83
2022/11/17 03:24:42;;;;;;;1.33;1.10;;;;;;;;;;4964731;28;20047;-83
2022/11/17 03:27:08;;;;;;;1.33;1.10;;;;;;;;;;4964262;28;20042;-82
2022/11/17 03:29:36;;;;;;;1.20;0.90;;;;;;;;;;4964662;28;20083;-82
2022/11/17 03:32:04;;;;;;;1.42;1.13;;;;;;;;;;4981516;28;20108;-82
2022/11/17 03:34:34;;;;;;;1.27;0.82;;;;;;;;;;4963736;29;20011;-82
2022/11/17 03:37:01;;;;;;;1.50;1.27;;;;;;;;;;4980024;29;20015;-83
2022/11/17 03:39:30;;;;;;;1.20;0.75;;;;;;;;;;4977719;28;20046;-82
2022/11/17 03:41:58;;;;;;;1.30;0.95;;;;;;;;;;4966282;28;20022;-83
2022/11/17 03:44:25;;;;;;;1.50;0.82;;;;;;;;;;4983824;28;20116;-83
2022/11/17 03:46:54;;;;;;;0.80;0.63;;;;;;;;;;4983771;28;20364;-83
2022/11/17 03:49:23;;;;;;;0.77;0.77;;;;;;;;;;4965928;28;20026;-83
2022/11/17 03:51:49;;;;;;;1.95;1.00;;;;;;;;;;4983508;28;20102;-83
2022/11/17 03:54:16;;;;;;;0.77;0.77;;;;;;;;;;4959322;29;20122;-83
2022/11/17 03:56:59;;;;;;;1.27;0.88;;;;;;;;;;4971318;28;20107;-83
2022/11/17 03:59:29;;;;;;;1.08;0.90;;;;;;;;;;4963711;29;20023;-83
2022/11/17 04:01:55;;;;;;;1.38;0.70;;;;;;;;;;4964557;29;20341;-83
2022/11/17 04:04:21;;;;;;;1.55;0.77;;;;;;;;;;4963592;29;20134;-83
2022/11/17 04:06:48;;;;;;;0.68;0.63;;;;;;;;;;4965471;29;20083;-83
2022/11/17 04:09:14;;;;;;;1.05;0.73;;;;;;;;;;4946330;29;20051;-83
2022/11/17 04:17:10;;;;;;;0.93;0.82;;;;;;;;;;4961666;29;20050;-84
2022/11/17 04:19:36;;;;;;;0.65;0.60;;;;;;;;;;4961290;29;20031;-85
2022/11/17 04:22:05;;;;;;;0.60;0.60;;;;;;;;;;4945541;29;20121;-84
2022/11/17 04:24:31;;;;;;;0.57;0.32;;;;;;;;;;4950020;28;20110;-84
2022/11/17 04:29:46;;;;;;;0.50;0.40;;;;;;;;;;4961660;29;20405;-83
2022/11/17 04:32:12;;;;;;;1.40;0.80;;;;;;;;;;4946698;29;20024;-83
2022/11/17 04:34:40;;;;;;;0.65;0.63;;;;;;;;;;4959865;29;20034;-86
2022/11/17 04:37:16;;;;;;;0.98;0.77;;;;;;;;;;4960297;29;20039;-85
2022/11/17 04:39:42;;;;;;;0.57;0.57;;;;;;;;;;4941641;29;20051;-85
2022/11/17 04:42:08;;;;;;;0.85;0.60;;;;;;;;;;4942611;29;20027;-85
2022/11/17 04:44:34;;;;;;;0.90;0.60;;;;;;;;;;4944160;29;20038;-84
2022/11/17 04:47:02;;;;;;;0.68;0.50;;;;;;;;;;4949600;29;20039;-85
2022/11/17 04:49:28;;;;;;;0.45;0.45;;;;;;;;;;4968015;29;20023;-83
2022/11/17 04:51:54;;;;;;;1.30;0.80;;;;;;;;;;4978858;28;20015;-84
2022/11/17 04:54:23;;;;;;;0.63;0.60;;;;;;;;;;4966252;28;20015;-83
2022/11/17 04:56:50;;;;;;;0.70;0.70;;;;;;;;;;4983722;28;20031;-84
2022/11/17 04:59:16;;;;;;;0.60;0.60;;;;;;;;;;4981064;28;20105;-84
2022/11/17 05:01:42;;;;;;;1.02;0.68;;;;;;;;;;4970439;28;20472;-81
2022/11/17 05:04:12;;;;;;;0.82;0.80;;;;;;;;;;4982138;28;20030;-81
2022/11/17 05:06:40;;;;;;;0.63;0.63;;;;;;;;;;4990503;28;20031;-81
2022/11/17 05:09:07;;;;;;;1.45;0.82;;;;;;;;;;4992308;28;20035;-81
2022/11/17 05:14:19;;;;;;;1.13;0.75;;;;;;;;;;4991096;28;20066;-82
2022/11/17 05:19:31;;;;;;;0.80;0.80;;;;;;;;;;4989740;28;20058;-82
2022/11/17 05:21:57;;;;;;;0.88;0.70;;;;;;;;;;4993768;28;20054;-82
2022/11/17 05:24:23;;;;;;;1.00;0.90;;;;;;;;;;4966617;29;20027;-83
2022/11/17 05:26:49;;;;;;;0.55;0.50;;;;;;;;;;4976332;28;20062;-84
2022/11/17 05:29:17;;;;;;;0.47;0.40;;;;;;;;;;4968110;28;20121;-83
2022/11/17 05:31:43;;;;;;;1.08;0.60;;;;;;;;;;4973891;28;20023;-83
2022/11/17 05:34:11;;;;;;;0.68;0.60;;;;;;;;;;4984333;28;20109;-83
2022/11/17 05:36:37;;;;;;;0.65;0.65;;;;;;;;;;4967573;28;20066;-84
2022/11/17 05:39:04;;;;;;;0.35;0.35;;;;;;;;;;4981639;28;20034;-83
2022/11/17 05:41:30;;;;;;;0.80;0.60;;;;;;;;;;4992301;28;20105;-84
2022/11/17 05:43:56;;;;;;;0.70;0.57;;;;;;;;;;4995302;28;20031;-83
2022/11/17 05:46:23;;;;;;;1.00;0.77;;;;;;;;;;4996335;28;20039;-84
2022/11/17 05:48:49;;;;;;;1.20;0.75;;;;;;;;;;4992500;28;20011;-83
2022/11/17 05:51:16;;;;;;;1.63;0.70;;;;;;;;;;4975905;28;20051;-84
2022/11/17 05:53:42;;;;;;;0.73;0.73;;;;;;;;;;4981747;28;20027;-83
2022/11/17 05:56:11;;;;;;;1.23;0.88;;;;;;;;;;4977956;28;20480;-84
2022/11/17 05:58:38;;;;;;;1.67;1.10;;;;;;;;;;4960880;28;20030;-84
2022/11/17 06:01:04;;;;;;;0.77;0.77;;;;;;;;;;4962945;28;20036;-84
2022/11/17 06:03:34;;;;;;;1.38;0.63;;;;;;;;;;4979710;28;20023;-84
2022/11/17 06:06:01;;;;;;;0.90;0.90;;;;;;;;;;4963257;28;20074;-84
2022/11/17 06:08:28;;;;;;;1.13;0.95;;;;;;;;;;4961758;28;20043;-84
2022/11/17 06:10:54;;;;;;;1.45;1.00;;;;;;;;;;4985791;28;20034;-83
2022/11/17 06:13:24;;;;;;;1.42;0.88;;;;;;;;;;4978248;28;20031;-84
2022/11/17 06:15:51;;;;;;;1.17;0.73;;;;;;;;;;4993772;28;20085;-83
2022/11/17 06:18:18;;;;;;;1.20;1.10;;;;;;;;;;4981210;28;20030;-84
2022/11/17 06:20:47;;;;;;;2.05;1.50;;;;;;;;;;4964926;28;20023;-84
2022/11/17 06:23:14;;;;;;;0.88;0.88;;;;;;;;;;4982172;28;20022;-84
2022/11/17 06:25:41;;;;;;;1.92;1.08;;;;;;;;;;4962364;28;20027;-84
2022/11/17 06:28:09;;;;;;;1.55;1.38;;;;;;;;;;4961355;28;20129;-85
2022/11/17 06:30:36;;;;;;;1.10;0.88;;;;;;;;;;4979797;28;20041;-83
2022/11/17 06:33:10;;;;;;;1.35;1.25;;;;;;;;;;4978198;28;20053;-84
2022/11/17 06:35:37;;;;;;;2.60;1.40;;;;;;;;;;4978557;28;20458;-83
2022/11/17 06:38:03;;;;;;;1.98;1.20;;;;;;;;;;4961278;28;20061;-82
2022/11/17 06:40:29;;;;;;;1.88;1.20;;;;;;;;;;4978286;28;20502;-85
2022/11/17 06:43:11;;;;;;;1.65;1.20;;;;;;;;;;4961940;28;20029;-83
2022/11/17 06:45:46;;;;;;;2.33;1.50;;;;;;;;;;4979684;28;20046;-82
2022/11/17 06:48:16;;;;;;;1.35;1.25;;;;;;;;;;4967133;28;20031;-83
2022/11/17 06:50:59;;;;;;;2.75;1.10;;;;;;;;;;4977714;28;20026;-85
2022/11/17 06:53:27;;;;;;;1.45;1.10;;;;;;;;;;4978247;28;20113;-84
2022/11/17 06:56:10;;;;;;;1.38;1.23;;;;;;;;;;4977432;28;20104;-82
2022/11/17 06:58:37;;;;;;;1.52;0.95;;;;;;;;;;4966177;28;20031;-83
2022/11/17 07:01:04;;;;;;;4.07;1.50;;;;;;;;;;4965808;28;20341;-83
2022/11/17 07:03:31;;;;;;;3.85;1.35;;;;;;;;;;4966543;28;20027;-84
2022/11/17 07:06:00;;;;;;;3.13;1.60;;;;;;;;;;4983552;28;20031;-83
2022/11/17 07:08:26;;;;;;;2.13;1.40;;;;;;;;;;4994952;28;20031;-83
2022/11/17 07:10:53;;;;;;;5.80;1.60;;;;;;;;;;4994812;28;20027;-84
2022/11/17 07:13:25;;;;;;;3.03;1.50;;;;;;;;;;4978830;28;20019;-84
2022/11/17 07:15:51;;;;;;;1.90;1.13;;;;;;;;;;4987341;28;20031;-84
2022/11/17 07:18:18;;;;;;;3.05;1.48;;;;;;;;;;4986460;28;20290;-84
2022/11/17 07:20:44;;;;;;;1.65;1.08;;;;;;;;;;4968535;28;20038;-83
2022/11/17 07:23:10;;;;;;;2.05;1.10;;;;;;;;;;4982616;28;20090;-83
2022/11/17 07:25:36;;;;;;;1.65;1.23;;;;;;;;;;4953432;28;20039;-84
2022/11/17 07:28:02;;;;;;;1.85;1.17;;;;;;;;;;4978708;28;20055;-83
2022/11/17 07:30:28;;;;;;;2.25;1.17;;;;;;;;;;4961736;28;20035;-83
2022/11/17 07:32:54;;;;;;;1.33;0.90;;;;;;;;;;4961084;28;20031;-83
2022/11/17 07:35:20;;;;;;;2.45;1.10;;;;;;;;;;4960665;28;20433;-85
2022/11/17 07:37:46;;;;;;;1.92;1.33;;;;;;;;;;4976335;28;20360;-85
2022/11/17 07:40:12;;;;;;;1.45;1.00;;;;;;;;;;4960690;28;20026;-83
2022/11/17 07:42:38;;;;;;;1.20;1.10;;;;;;;;;;4980291;28;20030;-84
2022/11/17 07:45:06;;;;;;;3.25;1.10;;;;;;;;;;4965069;28;20019;-84
2022/11/17 07:47:32;;;;;;;1.98;1.52;;;;;;;;;;4987150;28;20007;-84
2022/11/17 07:49:59;;;;;;;2.60;1.30;;;;;;;;;;4998859;28;20014;-83
2022/11/17 07:52:25;;;;;;;2.88;1.50;;;;;;;;;;4990653;28;20086;-85
2022/11/17 07:54:51;;;;;;;1.60;1.50;;;;;;;;;;4958486;29;20062;-84
2022/11/17 07:57:17;;;;;;;1.83;1.40;;;;;;;;;;4960660;28;20031;-83
2022/11/17 07:59:43;;;;;;;1.33;1.20;;;;;;;;;;4967581;28;20407;-83
2022/11/17 08:02:09;;;;;;;1.70;1.42;;;;;;;;;;4983392;28;20029;-84
2022/11/17 08:04:35;;;;;;;1.70;1.38;;;;;;;;;;4986556;28;20035;-83
2022/11/17 08:07:01;;;;;;;1.80;1.58;;;;;;;;;;4964862;28;20533;-83
2022/11/17 08:09:27;;;;;;;1.20;1.00;;;;;;;;;;4983031;28;20473;-83
2022/11/17 08:11:56;;;;;;;1.92;1.30;;;;;;;;;;4983493;28;20018;-84
2022/11/17 08:14:50;;;;;;;2.35;1.10;;;;;;;;;;4988849;28;20027;-84
2022/11/17 08:17:17;;;;;;;1.92;1.40;;;;;;;;;;4967457;28;20023;-84
2022/11/17 08:19:43;;;;;;;1.50;1.13;;;;;;;;;;4967661;28;20492;-82
2022/11/17 08:22:09;;;;;;;1.10;0.98;;;;;;;;;;4974263;28;20038;-83
2022/11/17 08:24:48;;;;;;;1.35;1.25;;;;;;;;;;4977515;28;20053;-83
2022/11/17 08:27:14;;;;;;;1.27;0.90;;;;;;;;;;4977043;28;20502;-83
2022/11/17 08:30:00;;;;;;;2.60;1.23;;;;;;;;;;4983200;28;20043;-82
2022/11/17 08:32:28;;;;;;;1.92;1.17;;;;;;;;;;4982920;28;20023;-82
2022/11/17 08:34:54;;;;;;;1.67;1.48;;;;;;;;;;5121764;23;20040;-81
2022/11/17 08:37:20;;;;;;;1.38;1.27;;;;;;;;;;4994398;28;20109;-83
2022/11/17 08:39:48;;;;;;;4.05;1.83;;;;;;;;;;4992578;28;20061;-83
2022/11/17 08:42:15;;;;;;;3.88;1.80;;;;;;;;;;5009961;28;20090;-84
2022/11/17 08:44:42;;;;;;;2.47;1.60;;;;;;;;;;5015846;28;20042;-82
2022/11/17 08:47:08;;;;;;;2.60;1.65;;;;;;;;;;5017485;28;20074;-83
2022/11/17 08:49:34;;;;;;;1.58;1.40;;;;;;;;;;5000830;28;20023;-81
2022/11/17 08:52:00;;;;;;;5.22;1.70;;;;;;;;;;5018987;28;20018;-81
2022/11/17 08:54:26;;;;;;;2.67;1.55;;;;;;;;;;5000439;28;20049;-81
2022/11/17 08:56:56;;;;;;;2.17;1.48;;;;;;;;;;5017886;28;20030;-80
2022/11/17 08:59:22;;;;;;;2.67;1.20;;;;;;;;;;5018854;28;20038;-82
2022/11/17 09:01:56;;;;;;;1.67;1.23;;;;;;;;;;5018726;28;20014;-82
2022/11/17 09:04:22;;;;;;;2.03;1.20;;;;;;;;;;5001917;28;20030;-88
2022/11/17 09:06:48;;;;;;;1.30;1.20;;;;;;;;;;5000865;28;20121;-84
2022/11/17 09:09:14;;;;;;;2.22;1.45;;;;;;;;;;5018817;28;20041;-85
2022/11/17 09:11:40;;;;;;;2.78;1.52;;;;;;;;;;5001881;28;20025;-88
2022/11/17 09:14:06;;;;;;;2.08;1.42;;;;;;;;;;5019013;28;20180;-84
2022/11/17 09:16:36;;;;;;;3.15;1.55;;;;;;;;;;4997406;28;20019;-85
2022/11/17 09:19:02;;;;;;;1.83;1.58;;;;;;;;;;5013995;28;20030;-85
2022/11/17 09:21:31;;;;;;;1.27;1.00;;;;;;;;;;4994813;28;20026;-85
2022/11/17 09:24:05;;;;;;;1.65;1.35;;;;;;;;;;5017385;28;20030;-87
2022/11/17 09:26:31;;;;;;;1.88;1.17;;;;;;;;;;5017277;28;20026;-84
2022/11/17 09:29:01;;;;;;;1.67;1.17;;;;;;;;;;5016609;28;20025;-84
2022/11/17 09:31:28;;;;;;;0.75;0.75;;;;;;;;;;4999259;28;20027;-86
2022/11/17 09:33:54;;;;;;;2.63;1.17;;;;;;;;;;5016904;28;20038;-85
2022/11/17 09:36:20;;;;;;;1.98;1.10;;;;;;;;;;4993796;28;20037;-84
2022/11/17 09:38:47;;;;;;;1.63;1.50;;;;;;;;;;4992026;28;20042;-84
2022/11/17 09:41:15;;;;;;;1.33;0.98;;;;;;;;;;5009062;28;20054;-86
2022/11/17 09:43:45;;;;;;;2.78;1.27;;;;;;;;;;4991384;28;20018;-85
2022/11/17 09:46:14;;;;;;;2.25;0.98;;;;;;;;;;4993073;28;20026;-84
2022/11/17 09:48:43;;;;;;;1.83;1.08;;;;;;;;;;4992542;28;20074;-84
2022/11/17 09:51:12;;;;;;;2.88;1.38;;;;;;;;;;4991376;28;20105;-85
2022/11/17 09:53:44;;;;;;;3.67;1.38;;;;;;;;;;4990352;28;20034;-84
2022/11/17 09:56:11;;;;;;;1.15;1.05;;;;;;;;;;5006431;28;20031;-85
2022/11/17 09:58:37;;;;;;;2.05;1.30;;;;;;;;;;4987677;28;20068;-85
2022/11/17 10:01:03;;;;;;;1.20;1.10;;;;;;;;;;4988186;28;20026;-85
2022/11/17 10:03:34;;;;;;;2.28;1.13;;;;;;;;;;5004969;28;20030;-85
2022/11/17 10:06:01;;;;;;;2.65;1.30;;;;;;;;;;4987781;28;20019;-85
2022/11/17 10:08:33;;;;;;;2.08;0.80;;;;;;;;;;4988087;28;20026;-87
2022/11/17 10:11:30;;;;;;;3.42;1.15;;;;;;;;;;4987682;28;20026;-84
2022/11/17 10:13:48;;;;;;;1.67;0.90;;;;;;;;;;5006075;28;20049;-86
2022/11/17 10:16:14;;;;;;;1.48;1.15;;;;;;;;;;4987627;28;20503;-86
2022/11/17 10:18:40;;;;;;;1.85;0.82;;;;;;;;;;4988877;28;20045;-85
2022/11/17 10:21:08;;;;;;;1.77;1.20;;;;;;;;;;4989329;28;20027;-85
2022/11/17 10:23:38;;;;;;;1.80;0.98;;;;;;;;;;4988764;28;20053;-87
2022/11/17 10:26:08;;;;;;;2.55;0.90;;;;;;;;;;5006384;28;20037;-85
2022/11/17 10:28:34;;;;;;;5.50;1.23;;;;;;;;;;4987934;28;20034;-85
2022/11/17 10:31:02;;;;;;;3.08;1.27;;;;;;;;;;4988484;28;20071;-84
2022/11/17 10:33:40;;;;;;;2.35;1.10;;;;;;;;;;4988518;28;20270;-85
2022/11/17 10:36:16;;;;;;;0.90;0.90;;;;;;;;;;5004540;28;20022;-84
2022/11/17 10:38:46;;;;;;;2.97;1.20;;;;;;;;;;4989530;28;20057;-86
2022/11/17 10:41:16;;;;;;;2.00;1.42;;;;;;;;;;4989480;28;20097;-86
2022/11/17 10:43:51;;;;;;;2.17;1.10;;;;;;;;;;4989794;28;20326;-87
2022/11/17 10:46:17;;;;;;;2.45;1.13;;;;;;;;;;5006941;28;20045;-84
2022/11/17 10:49:03;;;;;;;4.00;1.25;;;;;;;;;;4990183;28;20439;-85
2022/11/17 10:51:31;;;;;;;0.73;0.73;;;;;;;;;;5007962;28;20018;-86
2022/11/17 10:54:15;;;;;;;1.60;1.23;;;;;;;;;;4989651;28;20042;-85
2022/11/17 10:56:44;;;;;;;3.60;1.23;;;;;;;;;;5012507;28;20030;-89
2022/11/17 10:59:15;;;;;;;1.35;1.00;;;;;;;;;;5016127;28;20030;-88
2022/11/17 11:01:43;;;;;;;1.50;0.80;;;;;;;;;;4998745;28;20025;-90
2022/11/17 11:04:27;;;;;;;3.33;0.82;;;;;;;;;;5011214;28;20244;-87
2022/11/17 11:07:05;;;;;;;1.17;0.80;;;;;;;;;;5002303;28;20027;-84
2022/11/17 11:09:32;;;;;;;2.05;0.85;;;;;;;;;;5006406;28;20063;-86
2022/11/17 11:12:00;;;;;;;4.03;1.05;;;;;;;;;;5012699;28;20030;-85
2022/11/17 11:14:33;;;;;;;2.28;1.17;;;;;;;;;;5004093;28;20037;-84
2022/11/17 11:16:59;;;;;;;0.95;0.70;;;;;;;;;;5005959;28;20018;-86
2022/11/17 11:19:25;;;;;;;0.80;0.70;;;;;;;;;;5010282;28;20168;-84
2022/11/17 11:22:17;;;;;;;1.80;1.00;;;;;;;;;;5017673;28;20102;-83
2022/11/17 11:24:58;;;;;;;2.58;1.05;;;;;;;;;;5002675;28;20030;-85
2022/11/17 11:27:43;;;;;;;0.88;0.73;;;;;;;;;;5000978;28;20035;-84
2022/11/17 11:30:14;;;;;;;1.00;0.88;;;;;;;;;;5002155;28;20018;-84
2022/11/17 11:32:47;;;;;;;2.03;1.48;;;;;;;;;;5002265;28;20065;-84
2022/11/17 11:35:13;;;;;;;1.77;0.73;;;;;;;;;;4984552;28;20031;-84
2022/11/17 11:37:49;;;;;;;1.52;0.80;;;;;;;;;;5003158;28;20053;-84
2022/11/17 11:40:22;;;;;;;1.85;0.77;;;;;;;;;;4985295;28;20101;-84
2022/11/17 11:42:51;;;;;;;1.83;0.88;;;;;;;;;;4985194;28;20023;-84
2022/11/17 11:45:32;;;;;;;1.55;0.65;;;;;;;;;;5003497;28;20026;-84
2022/11/17 11:48:07;;;;;;;3.97;1.00;;;;;;;;;;5002766;28;20034;-85
2022/11/17 11:50:36;;;;;;;1.65;0.88;;;;;;;;;;4989765;28;20053;-85
2022/11/17 11:53:07;;;;;;;1.83;0.73;;;;;;;;;;4994988;28;20031;-85
2022/11/17 11:55:34;;;;;;;3.95;1.05;;;;;;;;;;5017951;28;20034;-86
2022/11/17 11:58:00;;;;;;;2.92;1.25;;;;;;;;;;5006898;28;20132;-84
2022/11/17 12:00:27;;;;;;;1.73;1.30;;;;;;;;;;4990708;28;20025;-83
2022/11/17 12:02:53;;;;;;;4.18;1.70;;;;;;;;;;4987117;28;20101;-85
2022/11/17 12:05:32;;;;;;;1.75;1.42;;;;;;;;;;5009135;28;20037;-85
2022/11/17 12:19:22;;;;;;;3.17;0.88;;;;;;;;;;4937222;29;20039;-85
2022/11/17 12:24:51;;;;;;;2.08;1.20;;;;;;;;;;5463228;23;20080;-86
2022/11/17 12:27:37;;;;;;;3.55;1.13;;;;;;;;;;5014627;28;20042;-85
2022/11/17 12:30:28;;;;;;;1.75;1.13;;;;;;;;;;5012824;28;20023;-86
2022/11/17 12:36:34;;;;;;;3.78;1.67;;;;;;;;;;5006786;28;20026;-85
2022/11/17 12:39:46;;;;;;;2.13;1.17;;;;;;;;;;4908485;29;20039;-85
2022/11/17 12:42:45;;;;;;;1.08;0.98;;;;;;;;;;4902202;29;20125;-86
2022/11/17 12:48:56;;;;;;;1.20;0.98;;;;;;;;;;4978606;28;20041;-86
2022/11/17 13:10:40;;;;;;;1.67;0.93;;;;;;;;;;5013485;23;20035;-85
2022/11/17 13:26:01;;;;;;;3.42;1.02;;;;;;;;;;4963567;28;20047;-84
2022/11/17 13:29:18;;;;;;;5.22;1.20;;;;;;;;;;4942292;29;20427;-84
2022/11/17 13:32:05;;;;;;;3.30;1.00;;;;;;;;;;4962313;29;20035;-85
2022/11/17 13:35:00;;;;;;;3.80;1.10;;;;;;;;;;4945469;29;20094;-84
2022/11/17 13:38:12;;;;;;;3.17;1.10;;;;;;;;;;4969009;28;20024;-83
2022/11/17 13:41:06;;;;;;;3.85;1.10;;;;;;;;;;4971752;28;20087;-83
2022/11/17 13:44:29;;;;;;;2.08;1.15;;;;;;;;;;4957371;29;20035;-83
2022/11/17 13:53:37;;;;;;;2.60;1.10;;;;;;;;;;4941737;29;20074;-84
2022/11/17 13:59:36;;;;;;;3.20;1.15;;;;;;;;;;4943359;29;20099;-83
2022/11/17 14:02:25;;;;;;;3.67;1.02;;;;;;;;;;4929952;29;20123;-84
2022/11/17 14:05:29;;;;;;;2.67;1.73;;;;;;;;;;4946016;29;20027;-85
2022/11/17 14:08:46;;;;;;;4.72;1.27;;;;;;;;;;4933505;29;20458;-85
2022/11/17 14:12:00;;;;;;;2.45;1.20;;;;;;;;;;4944814;29;20182;-85
2022/11/17 14:20:33;;;;;;;2.90;1.02;;;;;;;;;;4970880;28;20078;-90
2022/11/17 14:23:03;;;;;;;1.90;1.33;;;;;;;;;;4962857;28;20099;-82
2022/11/17 14:25:29;;;;;;;1.73;1.02;;;;;;;;;;4995350;28;20030;-81
2022/11/17 14:27:57;;;;;;;2.72;1.05;;;;;;;;;;4996366;28;20034;-81
2022/11/17 14:30:23;;;;;;;3.83;1.30;;;;;;;;;;4995791;28;20026;-82
2022/11/17 14:32:49;;;;;;;2.55;1.05;;;;;;;;;;4983855;28;20019;-83
2022/11/17 14:35:15;;;;;;;2.95;1.27;;;;;;;;;;4996227;28;20077;-81
2022/11/17 14:37:45;;;;;;;2.55;1.13;;;;;;;;;;4984008;28;20027;-83
2022/11/17 14:40:17;;;;;;;4.70;1.42;;;;;;;;;;4979299;28;20023;-82
2022/11/17 14:42:43;;;;;;;;;;;;;;;;;;4979623;28;20369;-82
2022/11/17 14:45:13;;;;;;;2.72;1.10;;;;;;;;;;4979078;28;20004;-80
2022/11/17 14:47:41;;;;;;;2.97;1.10;;;;;;;;;;4978588;28;20097;-81
2022/11/17 14:50:08;;;;;;;4.15;1.20;;;;;;;;;;4980086;28;20027;-83
2022/11/17 14:52:35;;;;;;;2.85;1.20;;;;;;;;;;4977347;28;20130;-82
2022/11/17 14:55:01;;;;;;;4.35;1.17;;;;;;;;;;4977817;28;20018;-83
2022/11/17 14:57:30;;;;;;;4.47;1.73;;;;;;;;;;4991099;28;20047;-82
2022/11/17 15:00:18;;;;;;;;;;;;;;;;;;;;;
2022/11/17 15:02:45;;;;;;;13.95;8.23;;;;;;;;;;4977876;28;20090;-82
2022/11/17 15:05:11;;;;;;;13.40;8.77;;;;;;;;;;4978308;28;20015;-82
2022/11/17 15:07:37;;;;;;;19.70;8.85;;;;;;;;;;4978506;28;20056;-81
2022/11/17 15:10:04;;;;;;;39.97;17.80;;;;;;;;;;4982822;28;20054;-82
2022/11/17 15:12:30;;;;;;;24.38;10.70;;;;;;;;;;4984964;28;20007;-82
2022/11/17 15:14:56;;;;;;;20.60;9.27;;;;;;;;;;4994250;28;20050;-83
2022/11/17 15:17:22;;;;;;;19.38;7.65;;;;;;;;;;4962831;28;20103;-82
2022/11/17 15:19:54;;;;;;;9.15;5.07;;;;;;;;;;4960684;29;20032;-81
2022/11/17 15:22:24;;;;;;;6.90;3.50;;;;;;;;;;4959112;29;20062;-82
2022/11/17 15:24:54;;;;;;;10.50;5.13;;;;;;;;;;4968359;28;20088;-81
2022/11/17 15:27:20;;;;;;;8.48;4.95;;;;;;;;;;4980928;28;20039;-82
2022/11/17 15:30:08;;;;;;;6.72;3.80;;;;;;;;;;4963029;29;20054;-81
2022/11/17 15:32:40;;;;;;;8.13;4.30;;;;;;;;;;4975295;28;20038;-81
2022/11/17 15:35:09;;;;;;;7.55;3.58;;;;;;;;;;4979429;28;20035;-82
2022/11/17 15:37:35;;;;;;;6.88;3.15;;;;;;;;;;4994801;28;20106;-82
2022/11/17 15:40:08;;;;;;;4.50;2.60;;;;;;;;;;4993880;28;20093;-82
2022/11/17 15:42:34;;;;;;;3.78;2.38;;;;;;;;;;4995632;28;20023;-83
2022/11/17 15:45:00;;;;;;;3.60;2.00;;;;;;;;;;4977786;28;20099;-82
2022/11/17 15:47:29;;;;;;;4.40;2.00;;;;;;;;;;4993037;28;20062;-82
2022/11/17 15:49:57;;;;;;;4.50;1.70;;;;;;;;;;4993712;28;20327;-82
2022/11/17 15:52:26;;;;;;;3.63;2.47;;;;;;;;;;4980124;28;20118;-82
2022/11/17 15:54:52;;;;;;;2.63;2.03;;;;;;;;;;4967718;28;20491;-82
2022/11/17 15:57:19;;;;;;;2.97;1.77;;;;;;;;;;4978920;28;20027;-82
2022/11/17 15:59:46;;;;;;;2.28;1.60;;;;;;;;;;4976282;28;20040;-83
2022/11/17 16:02:13;;;;;;;2.72;1.92;;;;;;;;;;4978615;28;20050;-82
2022/11/17 16:04:40;;;;;;;3.85;1.70;;;;;;;;;;4964220;28;20027;-82
2022/11/17 16:07:06;;;;;;;3.28;1.70;;;;;;;;;;4981950;28;20051;-83
2022/11/17 16:09:33;;;;;;;3.05;2.15;;;;;;;;;;4981464;28;20098;-83
2022/11/17 16:12:00;;;;;;;5.32;3.85;;;;;;;;;;4980533;28;20562;-82
2022/11/17 16:14:27;;;;;;;8.07;4.93;;;;;;;;;;4982540;28;20049;-82
2022/11/17 16:16:54;;;;;;;8.95;4.90;;;;;;;;;;4963898;28;20046;-83
2022/11/17 16:19:20;;;;;;;7.38;4.47;;;;;;;;;;4979246;28;20027;-82
2022/11/17 16:21:48;;;;;;;4.78;2.90;;;;;;;;;;4978847;28;20633;-83
2022/11/17 16:24:15;;;;;;;5.82;3.00;;;;;;;;;;4974236;28;20034;-82
2022/11/17 16:26:43;;;;;;;6.78;3.00;;;;;;;;;;4950911;28;20098;-82
2022/11/17 16:29:09;;;;;;;6.82;3.10;;;;;;;;;;4993787;28;20030;-82
2022/11/17 16:31:36;;;;;;;6.10;3.13;;;;;;;;;;4982283;28;20031;-82
2022/11/17 16:34:04;;;;;;;11.48;3.55;;;;;;;;;;4982321;28;20031;-82